sensor_id;sensor_type;location;lat;lon;timestamp;P1;durP1;ratioP1;P2;durP2;ratioP2
15006;SDS011;7599;50.748;13.142;2024-02-28T00:01:03;4.60;;;2.70;;
15006;SDS011;7599;50.748;13.142;2024-02-28T00:07:08;3.92;;;2.60;;
15006;SDS011;7599;50.748;13.142;2024-02-28T00:10:14;3.45;;;2.40;;
15006;SDS011;7599;50.748;13.142;2024-02-28T00:13:26;4.10;;;2.63;;
15006;SDS011;7599;50.748;13.142;2024-02-28T00:16:39;3.58;;;2.78;;
15006;SDS011;7599;50.748;13.142;2024-02-28T00:19:44;3.47;;;2.35;;
15006;SDS011;7599;50.748;13.142;2024-02-28T00:22:48;3.55;;;2.60;;
15006;SDS011;7599;50.748;13.142;2024-02-28T00:41:35;3.80;;;2.65;;
15006;SDS011;7599;50.748;13.142;2024-02-28T00:45:02;3.50;;;2.28;;
15006;SDS011;7599;50.748;13.142;2024-02-28T00:48:05;3.20;;;2.30;;
15006;SDS011;7599;50.748;13.142;2024-02-28T00:51:08;3.25;;;2.28;;
15006;SDS011;7599;50.748;13.142;2024-02-28T00:54:12;3.42;;;2.33;;
15006;SDS011;7599;50.748;13.142;2024-02-28T00:57:15;3.53;;;2.45;;
15006;SDS011;7599;50.748;13.142;2024-02-28T01:00:18;3.78;;;2.35;;
15006;SDS011;7599;50.748;13.142;2024-02-28T01:03:30;4.22;;;2.28;;
15006;SDS011;7599;50.748;13.142;2024-02-28T01:06:32;3.47;;;2.58;;
15006;SDS011;7599;50.748;13.142;2024-02-28T01:09:37;3.80;;;2.28;;
15006;SDS011;7599;50.748;13.142;2024-02-28T01:12:50;2.75;;;2.20;;
15006;SDS011;7599;50.748;13.142;2024-02-28T01:16:07;4.10;;;2.83;;
15006;SDS011;7599;50.748;13.142;2024-02-28T01:19:10;3.13;;;2.10;;
15006;SDS011;7599;50.748;13.142;2024-02-28T01:22:24;3.47;;;2.10;;
15006;SDS011;7599;50.748;13.142;2024-02-28T01:26:37;3.45;;;2.45;;
15006;SDS011;7599;50.748;13.142;2024-02-28T01:29:43;3.20;;;2.15;;
15006;SDS011;7599;50.748;13.142;2024-02-28T01:33:04;3.78;;;2.13;;
15006;SDS011;7599;50.748;13.142;2024-02-28T01:39:38;7.95;;;2.38;;
15006;SDS011;7599;50.748;13.142;2024-02-28T01:42:42;4.43;;;2.22;;
15006;SDS011;7599;50.748;13.142;2024-02-28T01:45:45;2.75;;;2.15;;
15006;SDS011;7599;50.748;13.142;2024-02-28T01:48:48;2.63;;;2.03;;
15006;SDS011;7599;50.748;13.142;2024-02-28T01:54:55;3.45;;;2.20;;
15006;SDS011;7599;50.748;13.142;2024-02-28T01:58:00;3.17;;;2.28;;
15006;SDS011;7599;50.748;13.142;2024-02-28T02:01:03;3.08;;;2.05;;
15006;SDS011;7599;50.748;13.142;2024-02-28T02:04:08;3.63;;;2.17;;
15006;SDS011;7599;50.748;13.142;2024-02-28T02:07:25;3.15;;;2.22;;
15006;SDS011;7599;50.748;13.142;2024-02-28T02:10:29;2.80;;;2.00;;
15006;SDS011;7599;50.748;13.142;2024-02-28T02:13:33;2.53;;;1.98;;
15006;SDS011;7599;50.748;13.142;2024-02-28T02:16:36;3.60;;;2.20;;
15006;SDS011;7599;50.748;13.142;2024-02-28T02:19:39;3.38;;;2.08;;
15006;SDS011;7599;50.748;13.142;2024-02-28T02:25:46;2.80;;;2.17;;
15006;SDS011;7599;50.748;13.142;2024-02-28T02:28:50;2.83;;;2.00;;
15006;SDS011;7599;50.748;13.142;2024-02-28T02:31:53;2.88;;;1.95;;
15006;SDS011;7599;50.748;13.142;2024-02-28T02:35:00;2.78;;;1.88;;
15006;SDS011;7599;50.748;13.142;2024-02-28T02:38:05;2.97;;;2.10;;
15006;SDS011;7599;50.748;13.142;2024-02-28T02:41:08;2.45;;;1.95;;
15006;SDS011;7599;50.748;13.142;2024-02-28T02:44:10;3.00;;;2.10;;
15006;SDS011;7599;50.748;13.142;2024-02-28T02:47:13;2.72;;;2.13;;
15006;SDS011;7599;50.748;13.142;2024-02-28T02:50:16;3.05;;;1.85;;
15006;SDS011;7599;50.748;13.142;2024-02-28T02:56:22;3.13;;;2.10;;
15006;SDS011;7599;50.748;13.142;2024-02-28T02:59:51;2.67;;;1.70;;
15006;SDS011;7599;50.748;13.142;2024-02-28T03:02:54;2.22;;;1.73;;
15006;SDS011;7599;50.748;13.142;2024-02-28T03:06:26;2.10;;;1.63;;
15006;SDS011;7599;50.748;13.142;2024-02-28T03:17:55;2.42;;;1.90;;
15006;SDS011;7599;50.748;13.142;2024-02-28T03:21:12;3.47;;;2.05;;
15006;SDS011;7599;50.748;13.142;2024-02-28T03:24:15;2.13;;;1.70;;
15006;SDS011;7599;50.748;13.142;2024-02-28T03:27:31;2.35;;;1.67;;
15006;SDS011;7599;50.748;13.142;2024-02-28T03:33:38;2.63;;;1.80;;
15006;SDS011;7599;50.748;13.142;2024-02-28T03:36:41;2.83;;;1.83;;
15006;SDS011;7599;50.748;13.142;2024-02-28T03:39:43;2.47;;;1.92;;
15006;SDS011;7599;50.748;13.142;2024-02-28T03:42:46;3.53;;;2.25;;
15006;SDS011;7599;50.748;13.142;2024-02-28T03:45:50;2.50;;;1.75;;
15006;SDS011;7599;50.748;13.142;2024-02-28T03:48:53;2.85;;;2.17;;
15006;SDS011;7599;50.748;13.142;2024-02-28T03:51:56;2.63;;;1.90;;
15006;SDS011;7599;50.748;13.142;2024-02-28T03:54:58;2.42;;;1.75;;
15006;SDS011;7599;50.748;13.142;2024-02-28T03:58:03;2.63;;;1.70;;
15006;SDS011;7599;50.748;13.142;2024-02-28T04:01:09;2.72;;;1.70;;
15006;SDS011;7599;50.748;13.142;2024-02-28T04:04:13;2.63;;;1.85;;
15006;SDS011;7599;50.748;13.142;2024-02-28T04:07:19;2.42;;;1.80;;
15006;SDS011;7599;50.748;13.142;2024-02-28T04:10:24;2.20;;;1.80;;
15006;SDS011;7599;50.748;13.142;2024-02-28T04:13:31;2.25;;;1.77;;
15006;SDS011;7599;50.748;13.142;2024-02-28T04:20:39;2.15;;;1.73;;
15006;SDS011;7599;50.748;13.142;2024-02-28T04:24:10;2.67;;;1.95;;
15006;SDS011;7599;50.748;13.142;2024-02-28T04:27:16;3.15;;;2.00;;
15006;SDS011;7599;50.748;13.142;2024-02-28T04:30:19;2.45;;;1.80;;
15006;SDS011;7599;50.748;13.142;2024-02-28T04:33:22;2.85;;;1.85;;
15006;SDS011;7599;50.748;13.142;2024-02-28T04:36:25;2.50;;;1.80;;
15006;SDS011;7599;50.748;13.142;2024-02-28T04:39:30;2.40;;;1.70;;
15006;SDS011;7599;50.748;13.142;2024-02-28T04:42:32;2.78;;;1.80;;
15006;SDS011;7599;50.748;13.142;2024-02-28T04:45:35;2.75;;;1.88;;
15006;SDS011;7599;50.748;13.142;2024-02-28T04:48:38;2.83;;;2.08;;
15006;SDS011;7599;50.748;13.142;2024-02-28T04:51:41;2.00;;;1.58;;
15006;SDS011;7599;50.748;13.142;2024-02-28T04:55:00;2.75;;;1.83;;
15006;SDS011;7599;50.748;13.142;2024-02-28T04:58:03;2.28;;;1.60;;
15006;SDS011;7599;50.748;13.142;2024-02-28T05:01:06;2.30;;;1.60;;
15006;SDS011;7599;50.748;13.142;2024-02-28T05:07:26;2.20;;;1.70;;
15006;SDS011;7599;50.748;13.142;2024-02-28T05:10:29;3.17;;;2.08;;
15006;SDS011;7599;50.748;13.142;2024-02-28T05:13:34;2.60;;;1.98;;
15006;SDS011;7599;50.748;13.142;2024-02-28T05:16:49;3.95;;;1.88;;
15006;SDS011;7599;50.748;13.142;2024-02-28T05:19:52;2.97;;;1.80;;
15006;SDS011;7599;50.748;13.142;2024-02-28T05:22:55;2.10;;;1.75;;
15006;SDS011;7599;50.748;13.142;2024-02-28T05:25:59;2.00;;;1.60;;
15006;SDS011;7599;50.748;13.142;2024-02-28T05:29:16;2.78;;;1.98;;
15006;SDS011;7599;50.748;13.142;2024-02-28T05:32:32;2.47;;;1.70;;
15006;SDS011;7599;50.748;13.142;2024-02-28T05:35:50;2.35;;;1.67;;
15006;SDS011;7599;50.748;13.142;2024-02-28T05:39:07;2.50;;;1.80;;
15006;SDS011;7599;50.748;13.142;2024-02-28T05:42:11;2.60;;;1.83;;
15006;SDS011;7599;50.748;13.142;2024-02-28T05:45:28;2.50;;;1.70;;
15006;SDS011;7599;50.748;13.142;2024-02-28T05:48:30;2.33;;;1.77;;
15006;SDS011;7599;50.748;13.142;2024-02-28T05:51:33;2.38;;;1.73;;
15006;SDS011;7599;50.748;13.142;2024-02-28T05:54:37;2.28;;;1.83;;
15006;SDS011;7599;50.748;13.142;2024-02-28T05:57:41;2.40;;;1.50;;
15006;SDS011;7599;50.748;13.142;2024-02-28T06:00:44;1.98;;;1.52;;
15006;SDS011;7599;50.748;13.142;2024-02-28T06:03:47;3.00;;;2.10;;
15006;SDS011;7599;50.748;13.142;2024-02-28T06:06:53;2.58;;;1.55;;
15006;SDS011;7599;50.748;13.142;2024-02-28T06:09:57;2.40;;;1.75;;
15006;SDS011;7599;50.748;13.142;2024-02-28T06:13:09;1.85;;;1.58;;
15006;SDS011;7599;50.748;13.142;2024-02-28T06:16:16;2.03;;;1.52;;
15006;SDS011;7599;50.748;13.142;2024-02-28T06:19:25;2.22;;;1.90;;
15006;SDS011;7599;50.748;13.142;2024-02-28T06:22:28;2.17;;;1.73;;
15006;SDS011;7599;50.748;13.142;2024-02-28T06:25:30;2.15;;;1.52;;
15006;SDS011;7599;50.748;13.142;2024-02-28T06:28:37;2.20;;;1.98;;
15006;SDS011;7599;50.748;13.142;2024-02-28T06:31:40;2.00;;;1.60;;
15006;SDS011;7599;50.748;13.142;2024-02-28T06:34:49;2.63;;;1.80;;
15006;SDS011;7599;50.748;13.142;2024-02-28T06:37:51;2.28;;;1.70;;
15006;SDS011;7599;50.748;13.142;2024-02-28T06:40:54;2.45;;;1.70;;
15006;SDS011;7599;50.748;13.142;2024-02-28T06:43:59;2.05;;;1.50;;
15006;SDS011;7599;50.748;13.142;2024-02-28T06:47:03;2.15;;;1.70;;
15006;SDS011;7599;50.748;13.142;2024-02-28T06:50:06;1.85;;;1.67;;
15006;SDS011;7599;50.748;13.142;2024-02-28T06:53:09;2.22;;;1.60;;
15006;SDS011;7599;50.748;13.142;2024-02-28T06:56:12;2.13;;;1.50;;
15006;SDS011;7599;50.748;13.142;2024-02-28T06:59:16;2.45;;;1.60;;
15006;SDS011;7599;50.748;13.142;2024-02-28T07:02:19;2.38;;;1.67;;
15006;SDS011;7599;50.748;13.142;2024-02-28T07:05:21;2.25;;;1.70;;
15006;SDS011;7599;50.748;13.142;2024-02-28T07:08:25;2.75;;;1.40;;
15006;SDS011;7599;50.748;13.142;2024-02-28T07:11:31;2.78;;;1.77;;
15006;SDS011;7599;50.748;13.142;2024-02-28T07:14:35;2.30;;;1.73;;
15006;SDS011;7599;50.748;13.142;2024-02-28T07:17:38;2.60;;;1.50;;
15006;SDS011;7599;50.748;13.142;2024-02-28T07:20:41;2.28;;;1.63;;
15006;SDS011;7599;50.748;13.142;2024-02-28T07:23:44;2.03;;;1.38;;
15006;SDS011;7599;50.748;13.142;2024-02-28T07:26:47;2.47;;;1.80;;
15006;SDS011;7599;50.748;13.142;2024-02-28T07:29:51;2.45;;;1.42;;
15006;SDS011;7599;50.748;13.142;2024-02-28T07:32:54;2.08;;;1.45;;
15006;SDS011;7599;50.748;13.142;2024-02-28T07:35:57;1.65;;;1.35;;
15006;SDS011;7599;50.748;13.142;2024-02-28T07:39:05;2.08;;;1.58;;
15006;SDS011;7599;50.748;13.142;2024-02-28T07:42:08;2.40;;;1.48;;
15006;SDS011;7599;50.748;13.142;2024-02-28T07:45:16;2.47;;;1.67;;
15006;SDS011;7599;50.748;13.142;2024-02-28T07:48:20;1.52;;;1.33;;
15006;SDS011;7599;50.748;13.142;2024-02-28T07:51:23;1.85;;;1.45;;
15006;SDS011;7599;50.748;13.142;2024-02-28T07:54:26;2.25;;;1.40;;
15006;SDS011;7599;50.748;13.142;2024-02-28T07:57:29;2.10;;;1.50;;
15006;SDS011;7599;50.748;13.142;2024-02-28T08:00:33;2.20;;;1.55;;
15006;SDS011;7599;50.748;13.142;2024-02-28T08:03:37;1.73;;;1.23;;
15006;SDS011;7599;50.748;13.142;2024-02-28T08:06:40;2.17;;;1.50;;
15006;SDS011;7599;50.748;13.142;2024-02-28T08:09:43;2.25;;;1.42;;
15006;SDS011;7599;50.748;13.142;2024-02-28T08:12:45;2.75;;;1.27;;
15006;SDS011;7599;50.748;13.142;2024-02-28T08:15:50;1.92;;;1.55;;
15006;SDS011;7599;50.748;13.142;2024-02-28T08:18:55;2.10;;;1.35;;
15006;SDS011;7599;50.748;13.142;2024-02-28T08:25:03;2.42;;;1.30;;
15006;SDS011;7599;50.748;13.142;2024-02-28T08:28:07;2.42;;;1.65;;
15006;SDS011;7599;50.748;13.142;2024-02-28T08:31:11;1.98;;;1.60;;
15006;SDS011;7599;50.748;13.142;2024-02-28T08:34:14;2.10;;;1.30;;
15006;SDS011;7599;50.748;13.142;2024-02-28T08:37:17;1.90;;;1.40;;
15006;SDS011;7599;50.748;13.142;2024-02-28T08:40:19;1.90;;;1.40;;
15006;SDS011;7599;50.748;13.142;2024-02-28T08:43:26;2.17;;;1.55;;
15006;SDS011;7599;50.748;13.142;2024-02-28T08:47:09;2.13;;;1.60;;
15006;SDS011;7599;50.748;13.142;2024-02-28T08:50:22;1.75;;;1.20;;
15006;SDS011;7599;50.748;13.142;2024-02-28T08:53:33;2.45;;;1.70;;
15006;SDS011;7599;50.748;13.142;2024-02-28T08:56:35;2.47;;;1.52;;
15006;SDS011;7599;50.748;13.142;2024-02-28T08:59:42;2.63;;;1.50;;
15006;SDS011;7599;50.748;13.142;2024-02-28T09:02:48;3.17;;;1.85;;
15006;SDS011;7599;50.748;13.142;2024-02-28T09:05:51;2.47;;;1.45;;
15006;SDS011;7599;50.748;13.142;2024-02-28T09:08:57;2.65;;;1.60;;
15006;SDS011;7599;50.748;13.142;2024-02-28T09:12:00;2.13;;;1.45;;
15006;SDS011;7599;50.748;13.142;2024-02-28T09:15:04;2.50;;;1.50;;
15006;SDS011;7599;50.748;13.142;2024-02-28T09:18:09;3.03;;;1.55;;
15006;SDS011;7599;50.748;13.142;2024-02-28T09:21:12;3.15;;;1.70;;
15006;SDS011;7599;50.748;13.142;2024-02-28T09:24:17;2.22;;;1.80;;
15006;SDS011;7599;50.748;13.142;2024-02-28T09:27:19;2.72;;;1.80;;
15006;SDS011;7599;50.748;13.142;2024-02-28T09:30:22;4.60;;;2.10;;
15006;SDS011;7599;50.748;13.142;2024-02-28T09:33:34;3.03;;;2.10;;
15006;SDS011;7599;50.748;13.142;2024-02-28T09:36:40;3.38;;;1.90;;
15006;SDS011;7599;50.748;13.142;2024-02-28T09:39:46;3.58;;;2.30;;
15006;SDS011;7599;50.748;13.142;2024-02-28T09:42:52;2.70;;;1.83;;
15006;SDS011;7599;50.748;13.142;2024-02-28T09:45:56;3.13;;;1.90;;
15006;SDS011;7599;50.748;13.142;2024-02-28T09:49:03;3.15;;;1.98;;
15006;SDS011;7599;50.748;13.142;2024-02-28T09:52:10;3.35;;;2.17;;
15006;SDS011;7599;50.748;13.142;2024-02-28T09:55:20;3.33;;;1.92;;
15006;SDS011;7599;50.748;13.142;2024-02-28T09:58:24;3.97;;;2.20;;
15006;SDS011;7599;50.748;13.142;2024-02-28T10:01:28;5.18;;;2.38;;
15006;SDS011;7599;50.748;13.142;2024-02-28T10:04:33;3.67;;;2.53;;
15006;SDS011;7599;50.748;13.142;2024-02-28T10:07:36;5.32;;;2.33;;
15006;SDS011;7599;50.748;13.142;2024-02-28T10:10:44;4.63;;;2.60;;
15006;SDS011;7599;50.748;13.142;2024-02-28T10:13:55;3.55;;;2.20;;
15006;SDS011;7599;50.748;13.142;2024-02-28T10:16:59;3.78;;;2.50;;
15006;SDS011;7599;50.748;13.142;2024-02-28T10:20:12;3.25;;;2.20;;
15006;SDS011;7599;50.748;13.142;2024-02-28T10:23:24;4.35;;;2.65;;
15006;SDS011;7599;50.748;13.142;2024-02-28T10:26:32;4.53;;;2.95;;
15006;SDS011;7599;50.748;13.142;2024-02-28T10:29:44;4.70;;;2.30;;
15006;SDS011;7599;50.748;13.142;2024-02-28T10:32:48;4.72;;;2.47;;
15006;SDS011;7599;50.748;13.142;2024-02-28T10:35:57;5.15;;;3.05;;
15006;SDS011;7599;50.748;13.142;2024-02-28T10:39:04;4.88;;;3.13;;
15006;SDS011;7599;50.748;13.142;2024-02-28T10:42:15;4.68;;;3.10;;
15006;SDS011;7599;50.748;13.142;2024-02-28T10:45:30;4.40;;;2.95;;
15006;SDS011;7599;50.748;13.142;2024-02-28T10:49:03;5.10;;;3.15;;
15006;SDS011;7599;50.748;13.142;2024-02-28T10:52:08;5.32;;;3.20;;
15006;SDS011;7599;50.748;13.142;2024-02-28T10:55:14;5.90;;;2.97;;
15006;SDS011;7599;50.748;13.142;2024-02-28T10:58:35;6.15;;;3.35;;
15006;SDS011;7599;50.748;13.142;2024-02-28T11:01:49;4.85;;;2.92;;
15006;SDS011;7599;50.748;13.142;2024-02-28T11:04:59;4.75;;;2.90;;
15006;SDS011;7599;50.748;13.142;2024-02-28T11:08:08;4.85;;;2.92;;
15006;SDS011;7599;50.748;13.142;2024-02-28T11:11:17;5.20;;;3.10;;
15006;SDS011;7599;50.748;13.142;2024-02-28T11:14:21;5.72;;;3.25;;
15006;SDS011;7599;50.748;13.142;2024-02-28T11:17:27;4.55;;;2.85;;
15006;SDS011;7599;50.748;13.142;2024-02-28T11:20:31;5.15;;;2.78;;
15006;SDS011;7599;50.748;13.142;2024-02-28T11:23:36;4.97;;;3.13;;
15006;SDS011;7599;50.748;13.142;2024-02-28T11:26:39;7.22;;;3.45;;
15006;SDS011;7599;50.748;13.142;2024-02-28T11:29:42;6.85;;;3.53;;
15006;SDS011;7599;50.748;13.142;2024-02-28T11:32:48;5.43;;;3.20;;
15006;SDS011;7599;50.748;13.142;2024-02-28T11:35:54;5.72;;;3.33;;
15006;SDS011;7599;50.748;13.142;2024-02-28T11:38:58;4.82;;;3.35;;
15006;SDS011;7599;50.748;13.142;2024-02-28T11:42:11;7.30;;;3.80;;
15006;SDS011;7599;50.748;13.142;2024-02-28T11:45:15;6.43;;;3.85;;
15006;SDS011;7599;50.748;13.142;2024-02-28T11:48:19;5.57;;;3.22;;
15006;SDS011;7599;50.748;13.142;2024-02-28T11:51:21;5.20;;;3.25;;
15006;SDS011;7599;50.748;13.142;2024-02-28T11:54:26;5.28;;;3.20;;
15006;SDS011;7599;50.748;13.142;2024-02-28T11:57:29;5.38;;;3.33;;
15006;SDS011;7599;50.748;13.142;2024-02-28T12:00:34;6.80;;;3.20;;
15006;SDS011;7599;50.748;13.142;2024-02-28T12:03:57;5.38;;;3.13;;
15006;SDS011;7599;50.748;13.142;2024-02-28T12:07:04;4.78;;;3.20;;
15006;SDS011;7599;50.748;13.142;2024-02-28T12:10:09;6.20;;;3.20;;
15006;SDS011;7599;50.748;13.142;2024-02-28T12:13:15;5.00;;;3.00;;
15006;SDS011;7599;50.748;13.142;2024-02-28T12:16:21;5.70;;;3.15;;
15006;SDS011;7599;50.748;13.142;2024-02-28T12:19:24;6.90;;;3.67;;
15006;SDS011;7599;50.748;13.142;2024-02-28T12:22:27;5.57;;;3.50;;
15006;SDS011;7599;50.748;13.142;2024-02-28T12:25:31;5.22;;;3.20;;
15006;SDS011;7599;50.748;13.142;2024-02-28T12:28:44;6.30;;;3.78;;
15006;SDS011;7599;50.748;13.142;2024-02-28T12:32:05;5.90;;;3.55;;
15006;SDS011;7599;50.748;13.142;2024-02-28T12:35:23;5.22;;;3.13;;
15006;SDS011;7599;50.748;13.142;2024-02-28T12:38:39;5.85;;;3.03;;
15006;SDS011;7599;50.748;13.142;2024-02-28T12:41:43;5.75;;;3.38;;
15006;SDS011;7599;50.748;13.142;2024-02-28T12:44:46;6.93;;;3.17;;
15006;SDS011;7599;50.748;13.142;2024-02-28T12:47:52;5.35;;;3.45;;
15006;SDS011;7599;50.748;13.142;2024-02-28T12:50:58;4.72;;;2.78;;
15006;SDS011;7599;50.748;13.142;2024-02-28T12:54:01;5.93;;;3.47;;
15006;SDS011;7599;50.748;13.142;2024-02-28T12:57:23;6.72;;;3.25;;
15006;SDS011;7599;50.748;13.142;2024-02-28T13:00:27;5.38;;;3.03;;
15006;SDS011;7599;50.748;13.142;2024-02-28T13:03:32;5.57;;;3.38;;
15006;SDS011;7599;50.748;13.142;2024-02-28T13:06:35;5.22;;;3.33;;
15006;SDS011;7599;50.748;13.142;2024-02-28T13:09:38;5.15;;;3.05;;
15006;SDS011;7599;50.748;13.142;2024-02-28T13:12:42;5.40;;;3.10;;
15006;SDS011;7599;50.748;13.142;2024-02-28T13:15:45;5.45;;;3.28;;
15006;SDS011;7599;50.748;13.142;2024-02-28T13:18:48;5.25;;;3.58;;
15006;SDS011;7599;50.748;13.142;2024-02-28T13:21:50;6.57;;;3.38;;
15006;SDS011;7599;50.748;13.142;2024-02-28T13:24:53;6.18;;;3.00;;
15006;SDS011;7599;50.748;13.142;2024-02-28T13:28:03;5.40;;;3.20;;
15006;SDS011;7599;50.748;13.142;2024-02-28T13:34:11;5.28;;;3.13;;
15006;SDS011;7599;50.748;13.142;2024-02-28T13:37:14;5.85;;;3.42;;
15006;SDS011;7599;50.748;13.142;2024-02-28T13:40:22;5.47;;;3.40;;
15006;SDS011;7599;50.748;13.142;2024-02-28T13:43:26;8.25;;;3.70;;
15006;SDS011;7599;50.748;13.142;2024-02-28T13:46:28;5.97;;;3.33;;
15006;SDS011;7599;50.748;13.142;2024-02-28T13:49:31;5.95;;;3.60;;
15006;SDS011;7599;50.748;13.142;2024-02-28T13:52:34;5.65;;;3.70;;
15006;SDS011;7599;50.748;13.142;2024-02-28T13:55:38;5.90;;;3.45;;
15006;SDS011;7599;50.748;13.142;2024-02-28T13:58:48;6.70;;;3.67;;
15006;SDS011;7599;50.748;13.142;2024-02-28T14:01:57;6.85;;;4.00;;
15006;SDS011;7599;50.748;13.142;2024-02-28T14:05:01;6.32;;;3.45;;
15006;SDS011;7599;50.748;13.142;2024-02-28T14:08:09;6.13;;;3.78;;
15006;SDS011;7599;50.748;13.142;2024-02-28T14:11:23;7.03;;;3.78;;
15006;SDS011;7599;50.748;13.142;2024-02-28T14:14:27;6.63;;;3.40;;
15006;SDS011;7599;50.748;13.142;2024-02-28T14:17:30;8.10;;;4.30;;
15006;SDS011;7599;50.748;13.142;2024-02-28T14:20:33;7.28;;;3.65;;
15006;SDS011;7599;50.748;13.142;2024-02-28T14:23:36;8.13;;;4.20;;
15006;SDS011;7599;50.748;13.142;2024-02-28T14:26:38;7.07;;;3.80;;
15006;SDS011;7599;50.748;13.142;2024-02-28T14:29:54;8.65;;;4.60;;
15006;SDS011;7599;50.748;13.142;2024-02-28T14:33:09;7.80;;;4.05;;
15006;SDS011;7599;50.748;13.142;2024-02-28T14:36:26;8.85;;;4.35;;
15006;SDS011;7599;50.748;13.142;2024-02-28T14:39:38;7.47;;;3.97;;
15006;SDS011;7599;50.748;13.142;2024-02-28T14:42:41;6.45;;;3.85;;
15006;SDS011;7599;50.748;13.142;2024-02-28T14:46:19;9.18;;;4.65;;
15006;SDS011;7599;50.748;13.142;2024-02-28T14:49:23;7.40;;;4.43;;
15006;SDS011;7599;50.748;13.142;2024-02-28T14:52:25;8.15;;;4.65;;
15006;SDS011;7599;50.748;13.142;2024-02-28T14:55:33;8.88;;;4.55;;
15006;SDS011;7599;50.748;13.142;2024-02-28T14:58:36;7.70;;;4.05;;
15006;SDS011;7599;50.748;13.142;2024-02-28T15:02:01;7.85;;;4.13;;
15006;SDS011;7599;50.748;13.142;2024-02-28T15:05:22;7.72;;;4.03;;
15006;SDS011;7599;50.748;13.142;2024-02-28T15:11:59;8.30;;;4.40;;
15006;SDS011;7599;50.748;13.142;2024-02-28T15:15:15;8.45;;;4.30;;
15006;SDS011;7599;50.748;13.142;2024-02-28T15:18:19;7.93;;;4.40;;
15006;SDS011;7599;50.748;13.142;2024-02-28T15:21:40;7.07;;;3.85;;
15006;SDS011;7599;50.748;13.142;2024-02-28T15:24:54;8.23;;;4.40;;
15006;SDS011;7599;50.748;13.142;2024-02-28T15:31:42;7.15;;;4.07;;
15006;SDS011;7599;50.748;13.142;2024-02-28T15:34:46;7.63;;;3.85;;
15006;SDS011;7599;50.748;13.142;2024-02-28T15:37:59;6.20;;;3.80;;
15006;SDS011;7599;50.748;13.142;2024-02-28T15:41:01;8.55;;;4.57;;
15006;SDS011;7599;50.748;13.142;2024-02-28T15:44:05;7.78;;;4.47;;
15006;SDS011;7599;50.748;13.142;2024-02-28T15:47:12;9.32;;;4.40;;
15006;SDS011;7599;50.748;13.142;2024-02-28T15:50:19;8.73;;;3.90;;
15006;SDS011;7599;50.748;13.142;2024-02-28T15:53:22;8.15;;;4.18;;
15006;SDS011;7599;50.748;13.142;2024-02-28T15:56:39;8.32;;;4.50;;
15006;SDS011;7599;50.748;13.142;2024-02-28T15:59:44;7.63;;;4.10;;
15006;SDS011;7599;50.748;13.142;2024-02-28T16:02:47;8.80;;;4.38;;
15006;SDS011;7599;50.748;13.142;2024-02-28T16:05:51;7.20;;;4.22;;
15006;SDS011;7599;50.748;13.142;2024-02-28T16:08:55;7.80;;;4.25;;
15006;SDS011;7599;50.748;13.142;2024-02-28T16:12:08;7.45;;;4.22;;
15006;SDS011;7599;50.748;13.142;2024-02-28T16:15:11;8.73;;;4.00;;
15006;SDS011;7599;50.748;13.142;2024-02-28T16:18:14;9.88;;;4.38;;
15006;SDS011;7599;50.748;13.142;2024-02-28T16:21:32;8.48;;;4.53;;
15006;SDS011;7599;50.748;13.142;2024-02-28T16:24:35;8.23;;;4.47;;
15006;SDS011;7599;50.748;13.142;2024-02-28T16:27:39;9.90;;;4.57;;
15006;SDS011;7599;50.748;13.142;2024-02-28T16:30:42;7.75;;;3.85;;
15006;SDS011;7599;50.748;13.142;2024-02-28T16:34:04;7.43;;;4.10;;
15006;SDS011;7599;50.748;13.142;2024-02-28T16:37:24;9.05;;;4.68;;
15006;SDS011;7599;50.748;13.142;2024-02-28T16:40:27;8.07;;;4.38;;
15006;SDS011;7599;50.748;13.142;2024-02-28T16:43:53;8.55;;;4.60;;
15006;SDS011;7599;50.748;13.142;2024-02-28T16:47:18;8.27;;;4.53;;
15006;SDS011;7599;50.748;13.142;2024-02-28T16:50:20;8.70;;;4.53;;
15006;SDS011;7599;50.748;13.142;2024-02-28T16:53:39;8.40;;;4.40;;
15006;SDS011;7599;50.748;13.142;2024-02-28T16:56:50;8.00;;;4.47;;
15006;SDS011;7599;50.748;13.142;2024-02-28T16:59:53;8.68;;;4.28;;
15006;SDS011;7599;50.748;13.142;2024-02-28T17:02:59;6.90;;;4.30;;
15006;SDS011;7599;50.748;13.142;2024-02-28T17:06:02;8.65;;;4.60;;
15006;SDS011;7599;50.748;13.142;2024-02-28T17:09:14;9.02;;;4.30;;
15006;SDS011;7599;50.748;13.142;2024-02-28T17:12:16;8.27;;;4.25;;
15006;SDS011;7599;50.748;13.142;2024-02-28T17:15:19;7.55;;;4.30;;
15006;SDS011;7599;50.748;13.142;2024-02-28T17:18:23;8.95;;;4.47;;
15006;SDS011;7599;50.748;13.142;2024-02-28T17:21:27;9.50;;;4.35;;
15006;SDS011;7599;50.748;13.142;2024-02-28T17:27:42;8.77;;;5.10;;
15006;SDS011;7599;50.748;13.142;2024-02-28T17:30:48;10.38;;;4.65;;
15006;SDS011;7599;50.748;13.142;2024-02-28T17:33:51;9.77;;;4.75;;
15006;SDS011;7599;50.748;13.142;2024-02-28T17:36:54;8.60;;;4.75;;
15006;SDS011;7599;50.748;13.142;2024-02-28T17:39:58;7.65;;;4.45;;
15006;SDS011;7599;50.748;13.142;2024-02-28T17:43:16;8.90;;;5.13;;
15006;SDS011;7599;50.748;13.142;2024-02-28T17:46:21;10.35;;;4.63;;
15006;SDS011;7599;50.748;13.142;2024-02-28T17:49:24;7.70;;;4.60;;
15006;SDS011;7599;50.748;13.142;2024-02-28T17:52:27;10.38;;;4.78;;
15006;SDS011;7599;50.748;13.142;2024-02-28T17:55:32;9.73;;;5.00;;
15006;SDS011;7599;50.748;13.142;2024-02-28T17:58:35;8.60;;;4.90;;
15006;SDS011;7599;50.748;13.142;2024-02-28T18:01:47;9.00;;;4.88;;
15006;SDS011;7599;50.748;13.142;2024-02-28T18:04:50;9.38;;;4.97;;
15006;SDS011;7599;50.748;13.142;2024-02-28T18:08:06;8.63;;;4.97;;
15006;SDS011;7599;50.748;13.142;2024-02-28T18:11:10;9.32;;;4.70;;
15006;SDS011;7599;50.748;13.142;2024-02-28T18:14:38;7.63;;;4.07;;
15006;SDS011;7599;50.748;13.142;2024-02-28T18:17:41;9.43;;;4.95;;
15006;SDS011;7599;50.748;13.142;2024-02-28T18:20:58;9.63;;;5.13;;
15006;SDS011;7599;50.748;13.142;2024-02-28T18:24:02;7.28;;;4.40;;
15006;SDS011;7599;50.748;13.142;2024-02-28T18:27:09;8.05;;;4.63;;
15006;SDS011;7599;50.748;13.142;2024-02-28T18:30:26;9.00;;;4.78;;
15006;SDS011;7599;50.748;13.142;2024-02-28T18:33:29;8.13;;;4.68;;
15006;SDS011;7599;50.748;13.142;2024-02-28T18:36:32;9.05;;;5.10;;
15006;SDS011;7599;50.748;13.142;2024-02-28T18:39:42;10.65;;;4.75;;
15006;SDS011;7599;50.748;13.142;2024-02-28T18:42:47;9.25;;;4.82;;
15006;SDS011;7599;50.748;13.142;2024-02-28T18:45:50;10.13;;;4.93;;
15006;SDS011;7599;50.748;13.142;2024-02-28T18:48:54;8.20;;;4.78;;
15006;SDS011;7599;50.748;13.142;2024-02-28T18:52:09;7.82;;;4.60;;
15006;SDS011;7599;50.748;13.142;2024-02-28T18:55:20;8.20;;;4.53;;
15006;SDS011;7599;50.748;13.142;2024-02-28T19:01:50;8.77;;;4.35;;
15006;SDS011;7599;50.748;13.142;2024-02-28T19:04:57;7.57;;;4.35;;
15006;SDS011;7599;50.748;13.142;2024-02-28T19:08:00;8.82;;;4.60;;
15006;SDS011;7599;50.748;13.142;2024-02-28T19:11:03;8.30;;;4.75;;
15006;SDS011;7599;50.748;13.142;2024-02-28T19:14:07;10.70;;;5.53;;
15006;SDS011;7599;50.748;13.142;2024-02-28T19:17:11;7.80;;;4.80;;
15006;SDS011;7599;50.748;13.142;2024-02-28T19:20:52;9.25;;;4.65;;
15006;SDS011;7599;50.748;13.142;2024-02-28T19:24:03;9.05;;;4.57;;
15006;SDS011;7599;50.748;13.142;2024-02-28T19:27:37;9.80;;;4.47;;
15006;SDS011;7599;50.748;13.142;2024-02-28T19:34:04;8.80;;;4.93;;
15006;SDS011;7599;50.748;13.142;2024-02-28T19:37:07;8.10;;;4.80;;
15006;SDS011;7599;50.748;13.142;2024-02-28T19:40:10;8.57;;;4.82;;
15006;SDS011;7599;50.748;13.142;2024-02-28T19:43:13;8.73;;;5.25;;
15006;SDS011;7599;50.748;13.142;2024-02-28T19:46:17;9.40;;;4.82;;
15006;SDS011;7599;50.748;13.142;2024-02-28T19:49:20;9.40;;;5.38;;
15006;SDS011;7599;50.748;13.142;2024-02-28T19:52:25;8.85;;;5.22;;
15006;SDS011;7599;50.748;13.142;2024-02-28T19:55:28;10.75;;;5.32;;
15006;SDS011;7599;50.748;13.142;2024-02-28T19:58:44;9.32;;;4.93;;
15006;SDS011;7599;50.748;13.142;2024-02-28T20:02:03;11.23;;;5.40;;